createdAt,value
2023-02-15T00:01:39.720Z,18.20
2023-02-15T00:04:11.911Z,17.40
2023-02-15T00:06:42.605Z,15.20
2023-02-15T00:09:14.013Z,15.50
2023-02-15T00:11:51.267Z,16.40
2023-02-15T00:14:22.917Z,18.80
2023-02-15T00:16:54.278Z,18.90
2023-02-15T00:19:25.376Z,20.10
2023-02-15T00:21:56.821Z,17.70
2023-02-15T00:24:27.801Z,15.40
2023-02-15T00:26:58.764Z,14.90
2023-02-15T00:29:29.785Z,14.80
2023-02-15T00:32:00.403Z,15.90
2023-02-15T00:34:31.660Z,15.20
2023-02-15T00:37:02.352Z,17.00
2023-02-15T00:39:33.382Z,17.60
2023-02-15T00:42:04.176Z,15.60
2023-02-15T00:44:34.954Z,15.50
2023-02-15T00:47:05.912Z,15.90
2023-02-15T00:49:38.065Z,15.70
2023-02-15T00:52:08.822Z,14.50
2023-02-15T00:54:41.302Z,15.40
2023-02-15T00:57:12.003Z,17.60
2023-02-15T00:59:43.248Z,17.60
2023-02-15T01:02:14.079Z,17.90
2023-02-15T01:04:45.727Z,16.70
2023-02-15T01:07:16.333Z,15.40
2023-02-15T01:09:47.411Z,15.30
2023-02-15T01:12:18.330Z,12.80
2023-02-15T01:14:51.849Z,16.20
2023-02-15T01:17:24.625Z,18.90
2023-02-15T01:19:55.462Z,18.10
2023-02-15T01:22:26.095Z,17.90
2023-02-15T01:24:57.337Z,16.10
2023-02-15T01:27:28.068Z,15.50
2023-02-15T01:29:59.449Z,15.10
2023-02-15T01:32:30.253Z,14.90
2023-02-15T01:35:01.307Z,15.70
2023-02-15T01:37:34.091Z,16.60
2023-02-15T01:40:06.647Z,16.80
2023-02-15T01:42:37.661Z,16.50
2023-02-15T01:45:16.507Z,15.70
2023-02-15T01:47:49.037Z,14.90
2023-02-15T01:50:23.656Z,16.30
2023-02-15T01:52:56.079Z,16.10
2023-02-15T01:55:29.386Z,17.50
2023-02-15T01:58:00.831Z,17.30
2023-02-15T02:00:31.985Z,17.80
2023-02-15T02:03:03.659Z,16.30
2023-02-15T02:05:34.917Z,16.60
2023-02-15T02:08:05.976Z,16.60
2023-02-15T02:10:36.999Z,14.70
2023-02-15T02:13:09.011Z,16.70
2023-02-15T02:15:46.663Z,17.10
2023-02-15T02:18:23.538Z,18.40
2023-02-15T02:21:07.840Z,17.70
2023-02-15T02:23:46.614Z,18.40
2023-02-15T02:26:37.257Z,19.50
2023-02-15T02:29:31.132Z,19.30
2023-02-15T02:32:14.400Z,18.20
2023-02-15T02:34:47.753Z,19.80
2023-02-15T02:37:21.050Z,20.50
2023-02-15T02:39:54.853Z,22.40
2023-02-15T02:42:30.018Z,22.10
2023-02-15T02:45:03.908Z,22.30
2023-02-15T02:47:37.089Z,20.10
2023-02-15T02:50:09.193Z,19.80
2023-02-15T02:52:42.041Z,19.90
2023-02-15T02:55:14.874Z,20.50
2023-02-15T02:57:49.445Z,16.80
2023-02-15T03:00:20.790Z,18.90
2023-02-15T03:02:53.602Z,17.50
2023-02-15T03:05:27.510Z,17.30
2023-02-15T03:07:59.797Z,18.50
2023-02-15T03:10:31.104Z,19.90
2023-02-15T03:13:02.384Z,20.70
2023-02-15T03:16:05.805Z,19.20
2023-02-15T03:18:38.873Z,19.00
2023-02-15T03:21:10.081Z,20.40
2023-02-15T03:23:42.397Z,21.70
2023-02-15T03:26:13.290Z,21.80
2023-02-15T03:28:45.377Z,23.20
2023-02-15T03:31:17.404Z,23.70
2023-02-15T03:33:52.362Z,21.10
2023-02-15T03:36:25.129Z,19.90
2023-02-15T03:39:01.096Z,20.90
2023-02-15T03:41:34.640Z,19.80
2023-02-15T03:44:08.457Z,20.90
2023-02-15T03:46:45.142Z,20.80
2023-02-15T03:49:18.785Z,22.20
2023-02-15T03:51:51.365Z,19.20
2023-02-15T03:54:38.402Z,20.30
2023-02-15T03:57:27.212Z,19.70
2023-02-15T04:00:15.687Z,18.60
2023-02-15T04:02:52.045Z,23.10
2023-02-15T04:05:23.191Z,22.40
2023-02-15T04:07:53.895Z,21.00
2023-02-15T04:10:42.545Z,20.80
2023-02-15T04:13:13.082Z,18.40
2023-02-15T04:16:02.598Z,18.70
2023-02-15T04:18:52.126Z,20.60
2023-02-15T04:21:41.089Z,19.50
2023-02-15T04:24:30.316Z,19.20
2023-02-15T04:27:01.801Z,18.70
2023-02-15T04:29:32.867Z,18.60
2023-02-15T04:32:04.109Z,18.70
2023-02-15T04:34:34.766Z,20.90
2023-02-15T04:37:05.857Z,23.60
2023-02-15T04:39:36.389Z,22.30
2023-02-15T04:42:07.346Z,20.70
2023-02-15T04:44:37.855Z,21.70
2023-02-15T04:47:08.749Z,20.80
2023-02-15T04:49:39.520Z,23.40
2023-02-15T04:52:10.528Z,22.90
2023-02-15T04:54:41.290Z,25.60
2023-02-15T04:57:12.340Z,23.20
2023-02-15T04:59:42.969Z,19.80
2023-02-15T05:02:13.659Z,20.20
2023-02-15T05:04:44.380Z,20.50
2023-02-15T05:07:19.257Z,19.30
2023-02-15T05:09:49.806Z,22.50
2023-02-15T05:12:20.762Z,22.70
2023-02-15T05:14:51.566Z,25.50
2023-02-15T05:17:22.602Z,25.30
2023-02-15T05:19:53.130Z,24.20
2023-02-15T05:22:24.480Z,24.70
2023-02-15T05:25:12.935Z,21.00
2023-02-15T05:28:03.302Z,20.60
2023-02-15T05:30:35.195Z,20.60
2023-02-15T05:33:06.282Z,23.20
2023-02-15T05:35:38.312Z,21.40
2023-02-15T05:38:09.440Z,26.60
2023-02-15T05:40:39.983Z,25.50
2023-02-15T05:43:11.158Z,21.70
2023-02-15T05:45:41.885Z,23.70
2023-02-15T05:48:12.961Z,21.90
2023-02-15T05:50:43.472Z,21.10
2023-02-15T05:53:15.684Z,21.40
2023-02-15T05:55:46.440Z,21.00
2023-02-15T05:58:18.576Z,23.50
2023-02-15T06:00:49.518Z,23.20
2023-02-15T06:03:20.418Z,24.60
2023-02-15T06:05:51.216Z,25.60
2023-02-15T06:08:22.240Z,25.30
2023-02-15T06:10:52.865Z,24.50
2023-02-15T06:13:23.897Z,23.30
2023-02-15T06:15:54.596Z,24.30
2023-02-15T06:18:25.773Z,25.80
2023-02-15T06:20:56.426Z,26.30
2023-02-15T06:23:28.068Z,24.90
2023-02-15T06:25:58.937Z,21.30
2023-02-15T06:28:30.048Z,23.60
2023-02-15T06:31:00.889Z,20.70
2023-02-15T06:33:34.810Z,21.80
2023-02-15T06:36:05.926Z,23.00
2023-02-15T06:38:37.124Z,23.50
2023-02-15T06:41:07.696Z,24.20
2023-02-15T06:43:40.882Z,21.20
2023-02-15T06:46:11.873Z,21.30
2023-02-15T06:48:42.830Z,20.60
2023-02-15T06:51:13.389Z,23.40
2023-02-15T06:53:45.604Z,24.60
2023-02-15T06:56:16.296Z,24.80
2023-02-15T06:58:47.639Z,21.30
2023-02-15T07:01:18.595Z,21.80
2023-02-15T07:03:49.613Z,22.20
2023-02-15T07:06:20.304Z,23.10
2023-02-15T07:08:51.454Z,24.40
2023-02-15T07:11:39.473Z,22.00
2023-02-15T07:14:10.616Z,20.90
2023-02-15T07:16:41.400Z,22.20
2023-02-15T07:19:12.508Z,23.20
2023-02-15T07:21:43.284Z,22.50
2023-02-15T07:24:14.262Z,22.30
2023-02-15T07:26:44.844Z,22.10
2023-02-15T07:29:16.809Z,19.80
2023-02-15T07:31:47.750Z,22.60
2023-02-15T07:34:18.989Z,23.50
2023-02-15T07:36:49.722Z,24.90
2023-02-15T07:39:20.886Z,23.10
2023-02-15T07:41:51.418Z,23.60
2023-02-15T07:44:22.642Z,22.80
2023-02-15T07:46:53.286Z,25.00
2023-02-15T07:49:24.462Z,23.50
2023-02-15T07:51:55.224Z,22.40
2023-02-15T07:54:26.500Z,20.70
2023-02-15T07:56:57.437Z,25.10
2023-02-15T07:59:28.990Z,21.50
2023-02-15T08:01:59.508Z,21.90
2023-02-15T08:04:30.425Z,22.90
2023-02-15T08:07:00.881Z,23.30
2023-02-15T08:09:32.535Z,23.80
2023-02-15T08:12:03.784Z,21.20
2023-02-15T08:14:34.860Z,21.70
2023-02-15T08:17:06.474Z,18.70
2023-02-15T08:19:38.741Z,20.80
2023-02-15T08:22:11.430Z,20.60
2023-02-15T08:24:43.761Z,22.10
2023-02-15T08:27:14.739Z,18.60
2023-02-15T08:29:45.930Z,19.50
2023-02-15T08:32:16.688Z,18.40
2023-02-15T08:34:48.286Z,20.10
2023-02-15T08:37:18.998Z,20.60
2023-02-15T08:39:50.043Z,18.90
2023-02-15T08:42:22.212Z,18.10
2023-02-15T08:44:53.093Z,21.10
2023-02-15T08:47:23.680Z,22.20
2023-02-15T08:49:55.283Z,24.10
2023-02-15T08:52:26.785Z,23.90
2023-02-15T08:54:57.813Z,21.70
2023-02-15T08:57:29.729Z,22.00
2023-02-15T09:00:00.765Z,22.70
2023-02-15T09:02:31.360Z,23.70
2023-02-15T09:05:02.488Z,24.30
2023-02-15T09:07:33.003Z,22.60
2023-02-15T09:10:03.919Z,20.80
2023-02-15T09:12:34.585Z,21.30
2023-02-15T09:15:06.196Z,22.60
2023-02-15T09:17:36.784Z,24.00
2023-02-15T09:20:09.820Z,24.70
2023-02-15T09:22:40.484Z,21.90
2023-02-15T09:25:11.557Z,22.70
2023-02-15T09:27:42.477Z,23.60
2023-02-15T09:30:14.977Z,25.00
2023-02-15T09:32:47.216Z,22.70
2023-02-15T09:35:22.994Z,24.00
2023-02-15T09:37:53.854Z,23.20
2023-02-15T09:40:25.831Z,21.70
2023-02-15T09:43:12.095Z,23.00
2023-02-15T09:45:53.463Z,25.50
2023-02-15T09:48:40.761Z,25.40
2023-02-15T09:51:31.576Z,22.40
2023-02-15T09:54:12.509Z,24.00
2023-02-15T09:56:48.624Z,21.00
2023-02-15T09:59:22.781Z,23.60
2023-02-15T10:01:58.099Z,23.90
2023-02-15T10:04:38.369Z,24.40
2023-02-15T10:07:15.697Z,22.30
2023-02-15T10:09:52.134Z,24.80
2023-02-15T10:12:36.943Z,23.60
2023-02-15T10:15:15.651Z,23.60
2023-02-15T10:17:53.207Z,23.50
2023-02-15T10:20:28.461Z,21.20
2023-02-15T10:23:08.305Z,21.20
2023-02-15T10:25:42.801Z,21.20
2023-02-15T10:28:17.606Z,25.60
2023-02-15T10:30:51.795Z,23.90
2023-02-15T10:33:34.848Z,23.40
2023-02-15T10:36:14.052Z,23.10
2023-02-15T10:38:47.175Z,23.40
2023-02-15T10:41:23.666Z,21.30
2023-02-15T10:44:05.203Z,24.90
2023-02-15T10:46:44.727Z,24.40
2023-02-15T10:49:20.946Z,25.00
2023-02-15T10:51:58.327Z,25.50
2023-02-15T10:54:33.926Z,23.40
2023-02-15T10:57:07.239Z,22.40
2023-02-15T10:59:42.641Z,24.10
2023-02-15T11:02:19.289Z,25.80
2023-02-15T11:04:53.610Z,28.00
2023-02-15T11:07:26.657Z,26.30
2023-02-15T11:10:02.485Z,28.20
2023-02-15T11:12:34.096Z,23.20
2023-02-15T11:15:06.643Z,22.50
2023-02-15T11:17:39.969Z,24.90
2023-02-15T11:20:17.808Z,26.70
2023-02-15T11:22:50.674Z,25.70
2023-02-15T11:25:25.938Z,25.40
2023-02-15T11:27:57.892Z,26.50
2023-02-15T11:44:18.406Z,23.80
2023-02-15T11:46:49.302Z,26.40
2023-02-15T11:49:25.204Z,27.00
2023-02-15T11:51:56.623Z,27.00
2023-02-15T11:54:29.866Z,28.40
2023-02-15T11:59:32.763Z,23.90
2023-02-15T12:02:03.449Z,22.80
2023-02-15T12:04:40.559Z,26.30
2023-02-15T12:07:16.370Z,26.30
2023-02-15T12:09:49.633Z,23.70
2023-02-15T12:12:24.519Z,25.40
2023-02-15T12:14:56.202Z,28.20
2023-02-15T12:17:28.464Z,27.00
2023-02-15T12:20:00.630Z,26.20
2023-02-15T12:22:32.963Z,26.80
2023-02-15T12:25:06.660Z,26.30
2023-02-15T12:27:38.176Z,22.80
2023-02-15T12:30:20.228Z,23.10
2023-02-15T12:32:54.032Z,23.40
2023-02-15T12:35:30.240Z,25.00
2023-02-15T12:38:03.570Z,25.10
2023-02-15T12:40:35.429Z,24.90
2023-02-15T12:43:09.775Z,26.70
2023-02-15T12:45:41.129Z,24.90
2023-02-15T12:48:17.047Z,24.90
2023-02-15T12:51:06.269Z,25.90
2023-02-15T12:53:38.071Z,25.10
2023-02-15T12:56:10.019Z,24.20
2023-02-15T12:58:47.125Z,25.10
2023-02-15T13:01:22.862Z,27.20
2023-02-15T13:03:58.722Z,25.10
2023-02-15T13:06:31.305Z,25.00
2023-02-15T13:09:08.485Z,25.50
2023-02-15T13:11:40.263Z,25.60
2023-02-15T13:14:19.022Z,25.40
2023-02-15T13:16:51.463Z,23.50
2023-02-15T13:19:25.548Z,24.70
2023-02-15T13:21:58.414Z,21.60
2023-02-15T13:24:30.682Z,43.10
2023-02-15T13:27:14.594Z,25.60
2023-02-15T13:29:47.369Z,24.00
2023-02-15T13:32:24.520Z,24.00
2023-02-15T13:34:58.020Z,23.80
2023-02-15T13:37:37.988Z,24.50
2023-02-15T13:40:15.626Z,24.50
2023-02-15T13:42:49.235Z,22.10
2023-02-15T13:45:36.084Z,22.80
2023-02-15T13:48:12.533Z,22.70
2023-02-15T13:50:54.129Z,23.40
2023-02-15T13:53:39.302Z,23.20
2023-02-15T13:56:14.478Z,22.70
2023-02-15T13:59:15.064Z,23.60
2023-02-15T14:01:47.829Z,21.90
2023-02-15T14:04:32.261Z,21.80
2023-02-15T14:07:11.059Z,22.60
2023-02-15T14:09:49.140Z,21.70
2023-02-15T14:12:35.806Z,21.40
2023-02-15T14:15:20.226Z,22.30
2023-02-15T14:17:55.830Z,27.00
2023-02-15T14:20:27.974Z,35.70
2023-02-15T14:23:01.321Z,22.80
2023-02-15T14:25:36.085Z,21.60
2023-02-15T14:28:10.155Z,22.00
2023-02-15T14:30:43.741Z,21.80
2023-02-15T14:33:25.728Z,21.90
2023-02-15T14:36:01.732Z,22.10
2023-02-15T14:38:40.216Z,22.40
2023-02-15T14:41:14.668Z,21.50
2023-02-15T14:43:49.406Z,21.30
2023-02-15T14:46:24.922Z,21.80
2023-02-15T14:48:57.053Z,21.60
2023-02-15T14:51:49.351Z,23.70
2023-02-15T14:54:41.638Z,21.10
2023-02-15T14:57:26.435Z,22.80
2023-02-15T15:00:00.036Z,21.60
2023-02-15T15:02:41.589Z,22.60
2023-02-15T15:05:17.955Z,21.40
2023-02-15T15:07:50.731Z,22.10
2023-02-15T15:10:41.579Z,22.00
2023-02-15T15:13:29.651Z,21.30
2023-02-15T15:16:20.614Z,21.40
2023-02-15T15:18:51.828Z,22.30
2023-02-15T15:21:40.478Z,22.70
2023-02-15T15:24:45.112Z,24.10
2023-02-15T15:27:36.168Z,25.50
2023-02-15T15:30:29.501Z,25.40
2023-02-15T15:35:36.187Z,27.00
2023-02-15T15:38:15.092Z,26.00
2023-02-15T15:40:57.492Z,25.60
2023-02-15T15:43:42.360Z,25.30
2023-02-15T15:46:21.086Z,25.10
2023-02-15T15:48:56.398Z,26.30
2023-02-15T15:51:30.736Z,26.30
2023-02-15T15:54:02.086Z,26.40
2023-02-15T15:56:35.687Z,26.90
2023-02-15T15:59:07.919Z,27.00
2023-02-15T16:01:42.651Z,28.20
2023-02-15T16:04:14.448Z,26.40
2023-02-15T16:06:46.850Z,26.40
2023-02-15T16:09:20.060Z,27.30
2023-02-15T16:11:53.239Z,24.00
2023-02-15T16:14:27.616Z,25.70
2023-02-15T16:17:04.744Z,24.00
2023-02-15T16:19:41.422Z,25.30
2023-02-15T16:22:12.950Z,26.00
2023-02-15T16:24:51.404Z,27.10
2023-02-15T16:27:44.608Z,26.00
2023-02-15T16:30:26.806Z,23.30
2023-02-15T16:33:05.321Z,26.00
2023-02-15T16:35:42.428Z,23.70
2023-02-15T16:38:13.226Z,26.00
2023-02-15T16:40:54.959Z,24.60
2023-02-15T16:43:28.452Z,27.20
2023-02-15T16:46:05.287Z,27.80
2023-02-15T16:48:43.098Z,28.50
2023-02-15T16:51:21.119Z,30.10
2023-02-15T16:53:52.111Z,24.80
2023-02-15T16:56:30.954Z,26.20
2023-02-15T16:59:07.120Z,25.00
2023-02-15T17:01:38.254Z,30.60
2023-02-15T17:04:17.027Z,29.40
2023-02-15T17:07:04.097Z,28.90
2023-02-15T17:09:35.757Z,31.00
2023-02-15T17:12:08.655Z,28.50
2023-02-15T17:14:42.559Z,29.20
2023-02-15T17:17:16.485Z,28.90
2023-02-15T17:19:55.451Z,28.70
2023-02-15T17:22:29.023Z,27.60
2023-02-15T17:25:02.734Z,29.70
2023-02-15T17:27:37.103Z,31.40
2023-02-15T17:30:16.091Z,31.80
2023-02-15T17:32:56.483Z,30.40
2023-02-15T17:35:28.655Z,28.40
2023-02-15T17:38:07.093Z,31.10
2023-02-15T17:40:38.412Z,27.50
2023-02-15T17:43:09.445Z,31.50
2023-02-15T17:45:42.974Z,32.40
2023-02-15T17:48:26.901Z,34.30
2023-02-15T17:50:58.074Z,32.70
2023-02-15T17:53:29.117Z,30.90
2023-02-15T17:56:11.187Z,30.60
2023-02-15T17:58:46.013Z,33.40
2023-02-15T18:01:42.617Z,31.90
2023-02-15T18:04:36.017Z,33.30
2023-02-15T18:07:29.483Z,34.60
2023-02-15T18:10:26.737Z,35.70
2023-02-15T18:13:02.658Z,36.60
2023-02-15T18:15:33.423Z,38.00
2023-02-15T18:18:05.108Z,37.00
2023-02-15T18:20:37.186Z,34.40
2023-02-15T18:23:10.773Z,35.80
2023-02-15T18:25:41.697Z,33.40
2023-02-15T18:28:18.054Z,33.80
2023-02-15T18:30:53.454Z,38.90
2023-02-15T18:33:31.073Z,38.50
2023-02-15T18:36:06.981Z,38.40
2023-02-15T18:38:42.509Z,38.90
2023-02-15T18:41:19.661Z,39.30
2023-02-15T18:43:55.859Z,38.00
2023-02-15T18:46:26.616Z,38.60
2023-02-15T18:49:02.509Z,39.80
2023-02-15T18:51:39.979Z,39.50
2023-02-15T18:54:17.184Z,36.80
2023-02-15T18:56:54.372Z,35.70
2023-02-15T18:59:30.469Z,38.20
2023-02-15T19:02:02.039Z,35.10
2023-02-15T19:04:33.120Z,35.90
2023-02-15T19:07:08.650Z,36.20
2023-02-15T19:09:40.080Z,37.90
2023-02-15T19:12:13.326Z,36.80
2023-02-15T19:14:48.648Z,37.90
2023-02-15T19:17:24.964Z,42.10
2023-02-15T19:19:55.976Z,36.60
2023-02-15T19:22:28.942Z,38.50
2023-02-15T19:25:01.030Z,39.00
2023-02-15T19:27:33.051Z,36.50
2023-02-15T19:30:05.880Z,39.20
2023-02-15T19:32:36.787Z,37.30
2023-02-15T19:35:08.688Z,42.90
2023-02-15T19:37:42.473Z,41.40
2023-02-15T19:40:19.742Z,40.50
2023-02-15T19:42:50.837Z,41.10
2023-02-15T19:45:27.803Z,42.10
2023-02-15T19:48:03.626Z,40.60
2023-02-15T19:50:39.873Z,39.40
2023-02-15T19:53:16.896Z,40.20
2023-02-15T19:55:47.804Z,40.80
2023-02-15T19:58:20.442Z,39.40
2023-02-15T20:00:56.140Z,37.90
2023-02-15T20:03:32.078Z,42.00
2023-02-15T20:06:03.195Z,38.80
2023-02-15T20:08:34.052Z,38.20
2023-02-15T20:11:10.392Z,37.40
2023-02-15T20:13:41.899Z,39.50
2023-02-15T20:16:12.966Z,38.50
2023-02-15T20:18:46.679Z,35.80
2023-02-15T20:21:19.526Z,33.00
2023-02-15T20:23:55.406Z,32.30
2023-02-15T20:26:31.712Z,32.70
2023-02-15T20:29:07.269Z,34.50
2023-02-15T20:31:43.474Z,33.50
2023-02-15T20:34:14.637Z,33.70
2023-02-15T20:36:45.191Z,32.80
2023-02-15T20:39:17.685Z,34.50
2023-02-15T20:41:51.123Z,31.50
2023-02-15T20:44:23.626Z,33.60
2023-02-15T20:46:55.488Z,33.10
2023-02-15T20:49:33.031Z,35.30
2023-02-15T20:52:04.756Z,35.20
2023-02-15T20:54:37.376Z,39.80
2023-02-15T20:57:13.141Z,38.80
2023-02-15T20:59:48.526Z,38.40
2023-02-15T21:02:20.431Z,39.30
2023-02-15T21:04:51.477Z,35.00
2023-02-15T21:07:26.418Z,38.20
2023-02-15T21:09:57.809Z,37.40
2023-02-15T21:12:28.840Z,37.30
2023-02-15T21:14:59.821Z,39.10
2023-02-15T21:17:30.634Z,41.30
2023-02-15T21:20:01.650Z,38.10
2023-02-15T21:22:32.387Z,43.10
2023-02-15T21:25:08.537Z,45.70
2023-02-15T21:27:44.676Z,43.50
2023-02-15T21:30:22.204Z,46.00
2023-02-15T21:32:53.522Z,43.40
2023-02-15T21:35:24.207Z,45.80
2023-02-15T21:37:55.164Z,45.60
2023-02-15T21:40:28.453Z,45.20
2023-02-15T21:43:17.560Z,48.00
2023-02-15T21:46:06.276Z,44.70
2023-02-15T21:48:37.172Z,47.80
2023-02-15T21:51:25.700Z,55.00
2023-02-15T21:53:57.060Z,52.90
2023-02-15T21:56:27.967Z,56.50
2023-02-15T21:58:58.830Z,57.60
2023-02-15T22:01:30.187Z,57.60
2023-02-15T22:04:01.108Z,56.20
2023-02-15T22:06:32.409Z,58.70
2023-02-15T22:09:03.097Z,55.40
2023-02-15T22:11:34.399Z,65.80
2023-02-15T22:14:05.181Z,60.60
2023-02-15T22:16:36.133Z,61.00
2023-02-15T22:19:07.222Z,61.80
2023-02-15T22:21:38.209Z,57.20
2023-02-15T22:24:09.439Z,55.30
2023-02-15T22:26:40.439Z,55.30
2023-02-15T22:29:14.748Z,49.60
2023-02-15T22:31:45.615Z,49.80
2023-02-15T22:34:24.317Z,50.80
2023-02-15T22:36:56.109Z,62.30
2023-02-15T22:39:27.098Z,66.50
2023-02-15T22:41:58.513Z,56.90
2023-02-15T22:44:31.200Z,56.60
2023-02-15T22:47:02.771Z,51.80
2023-02-15T22:49:33.662Z,54.30
2023-02-15T22:52:04.437Z,52.10
2023-02-15T22:54:35.541Z,47.70
2023-02-15T22:57:06.688Z,52.70
2023-02-15T22:59:37.570Z,56.30
2023-02-15T23:02:11.975Z,60.80
2023-02-15T23:04:42.981Z,67.00
2023-02-15T23:07:15.895Z,72.00
2023-02-15T23:09:47.116Z,67.60
2023-02-15T23:12:28.398Z,68.70
2023-02-15T23:14:59.643Z,64.90
2023-02-15T23:17:30.376Z,62.00
2023-02-15T23:20:01.114Z,63.80
2023-02-15T23:22:32.140Z,66.00
2023-02-15T23:25:02.920Z,70.30
2023-02-15T23:27:51.469Z,69.10
2023-02-15T23:30:23.141Z,68.10
2023-02-15T23:32:54.738Z,66.50
2023-02-15T23:35:26.109Z,71.80
2023-02-15T23:37:56.612Z,71.00
2023-02-15T23:40:44.853Z,67.70
2023-02-15T23:43:19.923Z,61.00
2023-02-15T23:45:50.999Z,64.20
2023-02-15T23:48:33.028Z,63.20
2023-02-15T23:51:05.762Z,70.00
2023-02-15T23:53:36.580Z,68.80
2023-02-15T23:56:08.145Z,67.70
2023-02-15T23:58:40.714Z,72.70
